sensor_id;sensor_type;location;lat;lon;timestamp;temperature;humidity
37300;DHT22;23184;51.902;12.836;2023-05-29T00:01:51;13.60;99.90
37300;DHT22;23184;51.902;12.836;2023-05-29T00:04:17;13.50;99.90
37300;DHT22;23184;51.902;12.836;2023-05-29T00:06:42;13.50;99.90
37300;DHT22;23184;51.902;12.836;2023-05-29T00:09:08;13.50;99.90
37300;DHT22;23184;51.902;12.836;2023-05-29T00:11:34;13.50;99.90
37300;DHT22;23184;51.902;12.836;2023-05-29T00:14:00;13.50;99.90
37300;DHT22;23184;51.902;12.836;2023-05-29T00:16:25;13.50;99.90
37300;DHT22;23184;51.902;12.836;2023-05-29T00:18:51;13.50;99.90
37300;DHT22;23184;51.902;12.836;2023-05-29T00:21:17;13.50;99.90
37300;DHT22;23184;51.902;12.836;2023-05-29T00:23:43;13.40;99.90
37300;DHT22;23184;51.902;12.836;2023-05-29T00:26:08;13.50;99.90
37300;DHT22;23184;51.902;12.836;2023-05-29T00:28:35;13.40;99.90
37300;DHT22;23184;51.902;12.836;2023-05-29T00:31:01;13.40;99.90
37300;DHT22;23184;51.902;12.836;2023-05-29T00:33:27;13.40;99.90
37300;DHT22;23184;51.902;12.836;2023-05-29T00:35:53;13.40;99.90
37300;DHT22;23184;51.902;12.836;2023-05-29T00:38:18;13.40;99.90
37300;DHT22;23184;51.902;12.836;2023-05-29T00:40:43;13.30;99.90
37300;DHT22;23184;51.902;12.836;2023-05-29T00:43:09;13.30;99.90
37300;DHT22;23184;51.902;12.836;2023-05-29T00:45:34;13.30;99.90
37300;DHT22;23184;51.902;12.836;2023-05-29T00:48:05;13.30;99.90
37300;DHT22;23184;51.902;12.836;2023-05-29T00:50:31;13.30;99.90
37300;DHT22;23184;51.902;12.836;2023-05-29T00:52:57;13.20;99.90
37300;DHT22;23184;51.902;12.836;2023-05-29T00:55:23;13.20;99.90
37300;DHT22;23184;51.902;12.836;2023-05-29T00:57:49;13.20;99.90
37300;DHT22;23184;51.902;12.836;2023-05-29T01:00:15;13.20;99.90
37300;DHT22;23184;51.902;12.836;2023-05-29T01:02:42;13.20;99.90
37300;DHT22;23184;51.902;12.836;2023-05-29T01:05:11;13.20;99.90
37300;DHT22;23184;51.902;12.836;2023-05-29T01:07:37;13.20;99.90
37300;DHT22;23184;51.902;12.836;2023-05-29T01:10:03;13.10;99.90
37300;DHT22;23184;51.902;12.836;2023-05-29T01:13:03;13.10;99.90
37300;DHT22;23184;51.902;12.836;2023-05-29T01:15:54;13.10;99.90
37300;DHT22;23184;51.902;12.836;2023-05-29T01:21:42;13.00;99.90
37300;DHT22;23184;51.902;12.836;2023-05-29T01:27:05;13.00;99.90
37300;DHT22;23184;51.902;12.836;2023-05-29T01:29:34;13.00;99.90
37300;DHT22;23184;51.902;12.836;2023-05-29T01:32:00;13.00;99.90
37300;DHT22;23184;51.902;12.836;2023-05-29T01:34:27;12.90;99.90
37300;DHT22;23184;51.902;12.836;2023-05-29T01:36:53;12.90;99.90
37300;DHT22;23184;51.902;12.836;2023-05-29T01:39:19;12.90;99.90
37300;DHT22;23184;51.902;12.836;2023-05-29T01:41:46;12.90;99.90
37300;DHT22;23184;51.902;12.836;2023-05-29T01:44:13;12.80;99.90
37300;DHT22;23184;51.902;12.836;2023-05-29T01:46:40;12.80;99.90
37300;DHT22;23184;51.902;12.836;2023-05-29T01:49:06;12.80;99.90
37300;DHT22;23184;51.902;12.836;2023-05-29T01:51:32;12.70;99.90
37300;DHT22;23184;51.902;12.836;2023-05-29T01:53:58;12.70;99.90
37300;DHT22;23184;51.902;12.836;2023-05-29T01:56:26;12.70;99.90
37300;DHT22;23184;51.902;12.836;2023-05-29T01:58:54;12.70;99.90
37300;DHT22;23184;51.902;12.836;2023-05-29T02:01:24;12.60;99.90
37300;DHT22;23184;51.902;12.836;2023-05-29T02:03:50;12.60;99.90
37300;DHT22;23184;51.902;12.836;2023-05-29T02:06:16;12.60;99.90
37300;DHT22;23184;51.902;12.836;2023-05-29T02:08:42;12.60;99.90
37300;DHT22;23184;51.902;12.836;2023-05-29T02:11:08;12.50;99.90
37300;DHT22;23184;51.902;12.836;2023-05-29T02:13:34;12.50;99.90
37300;DHT22;23184;51.902;12.836;2023-05-29T02:15:59;12.50;99.90
37300;DHT22;23184;51.902;12.836;2023-05-29T02:18:25;12.40;99.90
37300;DHT22;23184;51.902;12.836;2023-05-29T02:20:51;12.40;99.90
37300;DHT22;23184;51.902;12.836;2023-05-29T02:23:17;12.40;99.90
37300;DHT22;23184;51.902;12.836;2023-05-29T02:25:42;12.50;99.90
37300;DHT22;23184;51.902;12.836;2023-05-29T02:28:08;12.40;99.90
37300;DHT22;23184;51.902;12.836;2023-05-29T02:30:35;12.40;99.90
37300;DHT22;23184;51.902;12.836;2023-05-29T02:33:01;12.30;99.90
37300;DHT22;23184;51.902;12.836;2023-05-29T02:35:26;12.30;99.90
37300;DHT22;23184;51.902;12.836;2023-05-29T02:37:52;12.20;99.90
37300;DHT22;23184;51.902;12.836;2023-05-29T02:40:18;12.20;99.90
37300;DHT22;23184;51.902;12.836;2023-05-29T02:42:46;12.10;99.90
37300;DHT22;23184;51.902;12.836;2023-05-29T02:47:37;12.00;99.90
37300;DHT22;23184;51.902;12.836;2023-05-29T02:50:04;11.90;99.90
37300;DHT22;23184;51.902;12.836;2023-05-29T02:52:31;11.90;99.90
37300;DHT22;23184;51.902;12.836;2023-05-29T02:54:56;11.80;99.90
37300;DHT22;23184;51.902;12.836;2023-05-29T02:57:22;11.80;99.90
37300;DHT22;23184;51.902;12.836;2023-05-29T02:59:48;11.80;99.90
37300;DHT22;23184;51.902;12.836;2023-05-29T03:02:14;11.80;99.90
37300;DHT22;23184;51.902;12.836;2023-05-29T03:04:39;11.70;99.90
37300;DHT22;23184;51.902;12.836;2023-05-29T03:07:05;11.80;99.90
37300;DHT22;23184;51.902;12.836;2023-05-29T03:09:32;11.80;99.90
37300;DHT22;23184;51.902;12.836;2023-05-29T03:11:57;11.80;99.90
37300;DHT22;23184;51.902;12.836;2023-05-29T03:14:23;11.80;99.90
37300;DHT22;23184;51.902;12.836;2023-05-29T03:16:49;11.80;99.90
37300;DHT22;23184;51.902;12.836;2023-05-29T03:19:14;11.80;99.90
37300;DHT22;23184;51.902;12.836;2023-05-29T03:21:40;11.80;99.90
37300;DHT22;23184;51.902;12.836;2023-05-29T03:24:06;11.80;99.90
37300;DHT22;23184;51.902;12.836;2023-05-29T03:26:31;11.80;99.90
37300;DHT22;23184;51.902;12.836;2023-05-29T03:28:57;11.80;99.90
37300;DHT22;23184;51.902;12.836;2023-05-29T03:31:22;11.80;99.90
37300;DHT22;23184;51.902;12.836;2023-05-29T03:33:49;11.70;99.90
37300;DHT22;23184;51.902;12.836;2023-05-29T03:36:14;11.70;99.90
37300;DHT22;23184;51.902;12.836;2023-05-29T03:38:42;11.60;99.90
37300;DHT22;23184;51.902;12.836;2023-05-29T03:41:08;11.60;99.90
37300;DHT22;23184;51.902;12.836;2023-05-29T03:43:33;11.60;99.90
37300;DHT22;23184;51.902;12.836;2023-05-29T03:45:59;11.60;99.90
37300;DHT22;23184;51.902;12.836;2023-05-29T03:48:24;11.50;99.90
37300;DHT22;23184;51.902;12.836;2023-05-29T03:50:50;11.50;99.90
37300;DHT22;23184;51.902;12.836;2023-05-29T03:53:15;11.60;99.90
37300;DHT22;23184;51.902;12.836;2023-05-29T03:55:41;11.60;99.90
37300;DHT22;23184;51.902;12.836;2023-05-29T03:58:07;11.70;99.90
37300;DHT22;23184;51.902;12.836;2023-05-29T04:00:32;11.70;99.90
37300;DHT22;23184;51.902;12.836;2023-05-29T04:02:58;11.80;99.90
37300;DHT22;23184;51.902;12.836;2023-05-29T04:05:23;11.80;99.90
37300;DHT22;23184;51.902;12.836;2023-05-29T04:07:48;11.80;99.90
37300;DHT22;23184;51.902;12.836;2023-05-29T04:10:14;11.90;99.90
37300;DHT22;23184;51.902;12.836;2023-05-29T04:12:40;11.80;99.90
37300;DHT22;23184;51.902;12.836;2023-05-29T04:15:06;11.80;99.90
37300;DHT22;23184;51.902;12.836;2023-05-29T04:17:32;11.80;99.90
37300;DHT22;23184;51.902;12.836;2023-05-29T04:19:57;11.90;99.90
37300;DHT22;23184;51.902;12.836;2023-05-29T04:22:23;11.90;99.90
37300;DHT22;23184;51.902;12.836;2023-05-29T04:24:49;12.00;99.90
37300;DHT22;23184;51.902;12.836;2023-05-29T04:27:14;12.10;99.90
37300;DHT22;23184;51.902;12.836;2023-05-29T04:29:43;12.20;99.90
37300;DHT22;23184;51.902;12.836;2023-05-29T04:32:09;12.40;99.90
37300;DHT22;23184;51.902;12.836;2023-05-29T04:34:36;12.50;99.90
37300;DHT22;23184;51.902;12.836;2023-05-29T04:37:02;12.60;99.90
37300;DHT22;23184;51.902;12.836;2023-05-29T04:39:28;12.70;99.90
37300;DHT22;23184;51.902;12.836;2023-05-29T04:41:54;12.90;99.90
37300;DHT22;23184;51.902;12.836;2023-05-29T04:44:21;13.00;99.90
37300;DHT22;23184;51.902;12.836;2023-05-29T04:46:47;13.10;99.90
37300;DHT22;23184;51.902;12.836;2023-05-29T04:49:13;13.20;99.90
37300;DHT22;23184;51.902;12.836;2023-05-29T04:51:39;13.30;99.90
37300;DHT22;23184;51.902;12.836;2023-05-29T04:54:08;13.40;99.90
37300;DHT22;23184;51.902;12.836;2023-05-29T04:56:34;13.50;99.90
37300;DHT22;23184;51.902;12.836;2023-05-29T04:59:00;13.60;99.90
37300;DHT22;23184;51.902;12.836;2023-05-29T05:01:25;13.60;99.90
37300;DHT22;23184;51.902;12.836;2023-05-29T05:03:51;13.70;99.90
37300;DHT22;23184;51.902;12.836;2023-05-29T05:06:24;13.70;99.90
37300;DHT22;23184;51.902;12.836;2023-05-29T05:08:51;13.80;99.90
37300;DHT22;23184;51.902;12.836;2023-05-29T05:11:17;13.90;99.90
37300;DHT22;23184;51.902;12.836;2023-05-29T05:13:43;13.90;99.90
37300;DHT22;23184;51.902;12.836;2023-05-29T05:16:09;14.00;99.90
37300;DHT22;23184;51.902;12.836;2023-05-29T05:18:35;14.00;99.90
37300;DHT22;23184;51.902;12.836;2023-05-29T05:21:01;14.10;99.90
37300;DHT22;23184;51.902;12.836;2023-05-29T05:23:28;14.20;99.90
37300;DHT22;23184;51.902;12.836;2023-05-29T05:25:53;14.20;99.90
37300;DHT22;23184;51.902;12.836;2023-05-29T05:28:19;14.30;99.90
37300;DHT22;23184;51.902;12.836;2023-05-29T05:30:44;14.40;99.90
37300;DHT22;23184;51.902;12.836;2023-05-29T05:33:10;14.40;99.90
37300;DHT22;23184;51.902;12.836;2023-05-29T05:35:36;14.50;99.90
37300;DHT22;23184;51.902;12.836;2023-05-29T05:38:01;14.60;99.90
37300;DHT22;23184;51.902;12.836;2023-05-29T05:40:27;14.60;99.90
37300;DHT22;23184;51.902;12.836;2023-05-29T05:42:52;14.60;99.90
37300;DHT22;23184;51.902;12.836;2023-05-29T05:45:18;14.70;99.90
37300;DHT22;23184;51.902;12.836;2023-05-29T05:47:43;14.70;99.90
37300;DHT22;23184;51.902;12.836;2023-05-29T05:50:09;14.80;99.90
37300;DHT22;23184;51.902;12.836;2023-05-29T05:52:35;14.90;99.90
37300;DHT22;23184;51.902;12.836;2023-05-29T05:55:00;14.90;99.90
37300;DHT22;23184;51.902;12.836;2023-05-29T05:57:26;15.00;99.90
37300;DHT22;23184;51.902;12.836;2023-05-29T05:59:52;15.00;99.90
37300;DHT22;23184;51.902;12.836;2023-05-29T06:02:18;15.10;99.90
37300;DHT22;23184;51.902;12.836;2023-05-29T06:04:43;15.20;99.90
37300;DHT22;23184;51.902;12.836;2023-05-29T06:07:09;15.30;99.90
37300;DHT22;23184;51.902;12.836;2023-05-29T06:09:35;15.40;99.90
37300;DHT22;23184;51.902;12.836;2023-05-29T06:12:00;15.50;99.90
37300;DHT22;23184;51.902;12.836;2023-05-29T06:14:27;15.70;99.90
37300;DHT22;23184;51.902;12.836;2023-05-29T06:16:52;16.00;99.90
37300;DHT22;23184;51.902;12.836;2023-05-29T06:19:19;16.10;99.90
37300;DHT22;23184;51.902;12.836;2023-05-29T06:21:44;16.40;99.90
37300;DHT22;23184;51.902;12.836;2023-05-29T06:24:10;16.60;99.90
37300;DHT22;23184;51.902;12.836;2023-05-29T06:26:36;16.90;99.90
37300;DHT22;23184;51.902;12.836;2023-05-29T06:29:01;17.10;99.90
37300;DHT22;23184;51.902;12.836;2023-05-29T06:31:27;17.20;99.90
37300;DHT22;23184;51.902;12.836;2023-05-29T06:33:52;17.40;99.90
37300;DHT22;23184;51.902;12.836;2023-05-29T06:36:18;17.60;99.90
37300;DHT22;23184;51.902;12.836;2023-05-29T06:38:50;17.70;99.90
37300;DHT22;23184;51.902;12.836;2023-05-29T06:41:16;17.80;99.90
37300;DHT22;23184;51.902;12.836;2023-05-29T06:43:42;18.00;99.90
37300;DHT22;23184;51.902;12.836;2023-05-29T06:46:07;18.20;99.90
37300;DHT22;23184;51.902;12.836;2023-05-29T06:48:33;18.30;99.90
37300;DHT22;23184;51.902;12.836;2023-05-29T06:51:00;18.50;99.90
37300;DHT22;23184;51.902;12.836;2023-05-29T06:53:25;18.70;99.90
37300;DHT22;23184;51.902;12.836;2023-05-29T06:55:52;18.80;99.90
37300;DHT22;23184;51.902;12.836;2023-05-29T06:58:18;19.10;99.90
37300;DHT22;23184;51.902;12.836;2023-05-29T07:00:43;19.30;99.90
37300;DHT22;23184;51.902;12.836;2023-05-29T07:03:09;19.60;99.90
37300;DHT22;23184;51.902;12.836;2023-05-29T07:05:34;19.80;99.90
37300;DHT22;23184;51.902;12.836;2023-05-29T07:08:00;20.00;99.90
37300;DHT22;23184;51.902;12.836;2023-05-29T07:10:25;20.00;99.90
37300;DHT22;23184;51.902;12.836;2023-05-29T07:12:51;20.30;99.90
37300;DHT22;23184;51.902;12.836;2023-05-29T07:15:16;20.70;99.90
37300;DHT22;23184;51.902;12.836;2023-05-29T07:17:42;21.10;97.70
37300;DHT22;23184;51.902;12.836;2023-05-29T07:20:07;21.30;95.90
37300;DHT22;23184;51.902;12.836;2023-05-29T07:22:34;21.50;94.00
37300;DHT22;23184;51.902;12.836;2023-05-29T07:25:00;21.50;92.50
37300;DHT22;23184;51.902;12.836;2023-05-29T07:27:26;21.40;91.20
37300;DHT22;23184;51.902;12.836;2023-05-29T07:29:51;21.50;91.10
37300;DHT22;23184;51.902;12.836;2023-05-29T07:32:16;21.80;89.40
37300;DHT22;23184;51.902;12.836;2023-05-29T07:34:42;22.10;86.40
37300;DHT22;23184;51.902;12.836;2023-05-29T07:37:07;22.50;84.50
37300;DHT22;23184;51.902;12.836;2023-05-29T07:39:34;22.60;80.70
37300;DHT22;23184;51.902;12.836;2023-05-29T07:42:01;22.80;79.10
37300;DHT22;23184;51.902;12.836;2023-05-29T07:44:27;22.80;76.30
37300;DHT22;23184;51.902;12.836;2023-05-29T07:46:52;22.90;76.00
37300;DHT22;23184;51.902;12.836;2023-05-29T07:49:20;22.80;75.20
37300;DHT22;23184;51.902;12.836;2023-05-29T07:51:45;22.70;72.90
37300;DHT22;23184;51.902;12.836;2023-05-29T07:54:11;22.90;74.10
37300;DHT22;23184;51.902;12.836;2023-05-29T07:56:37;23.20;73.50
37300;DHT22;23184;51.902;12.836;2023-05-29T07:59:03;23.40;71.80
37300;DHT22;23184;51.902;12.836;2023-05-29T08:01:29;23.50;72.00
37300;DHT22;23184;51.902;12.836;2023-05-29T08:03:55;23.70;70.60
37300;DHT22;23184;51.902;12.836;2023-05-29T08:06:21;23.90;69.60
37300;DHT22;23184;51.902;12.836;2023-05-29T08:08:46;24.20;70.40
37300;DHT22;23184;51.902;12.836;2023-05-29T08:11:12;24.40;67.30
37300;DHT22;23184;51.902;12.836;2023-05-29T08:13:38;24.40;66.30
37300;DHT22;23184;51.902;12.836;2023-05-29T08:16:04;24.50;66.20
37300;DHT22;23184;51.902;12.836;2023-05-29T08:18:31;24.40;66.70
37300;DHT22;23184;51.902;12.836;2023-05-29T08:20:58;24.70;65.80
37300;DHT22;23184;51.902;12.836;2023-05-29T08:23:24;24.70;65.20
37300;DHT22;23184;51.902;12.836;2023-05-29T08:25:49;25.00;65.20
37300;DHT22;23184;51.902;12.836;2023-05-29T08:28:15;25.50;64.70
37300;DHT22;23184;51.902;12.836;2023-05-29T08:30:41;25.90;61.70
37300;DHT22;23184;51.902;12.836;2023-05-29T08:33:07;26.20;61.00
37300;DHT22;23184;51.902;12.836;2023-05-29T08:35:33;26.50;61.20
37300;DHT22;23184;51.902;12.836;2023-05-29T08:37:59;26.70;60.70
37300;DHT22;23184;51.902;12.836;2023-05-29T08:40:24;26.80;60.60
37300;DHT22;23184;51.902;12.836;2023-05-29T08:43:12;26.40;58.90
37300;DHT22;23184;51.902;12.836;2023-05-29T08:45:43;25.80;58.90
37300;DHT22;23184;51.902;12.836;2023-05-29T08:48:09;25.20;59.70
37300;DHT22;23184;51.902;12.836;2023-05-29T08:50:37;25.40;62.90
37300;DHT22;23184;51.902;12.836;2023-05-29T08:53:09;25.90;61.10
37300;DHT22;23184;51.902;12.836;2023-05-29T08:55:35;26.50;59.20
37300;DHT22;23184;51.902;12.836;2023-05-29T08:58:01;26.90;58.30
37300;DHT22;23184;51.902;12.836;2023-05-29T09:00:26;27.30;56.90
37300;DHT22;23184;51.902;12.836;2023-05-29T09:05:21;28.20;55.40
37300;DHT22;23184;51.902;12.836;2023-05-29T09:07:47;28.40;55.20
37300;DHT22;23184;51.902;12.836;2023-05-29T09:10:15;28.70;55.20
37300;DHT22;23184;51.902;12.836;2023-05-29T09:12:41;29.00;53.50
37300;DHT22;23184;51.902;12.836;2023-05-29T09:15:25;29.30;53.90
37300;DHT22;23184;51.902;12.836;2023-05-29T09:17:51;29.80;53.40
37300;DHT22;23184;51.902;12.836;2023-05-29T09:20:18;29.90;53.20
37300;DHT22;23184;51.902;12.836;2023-05-29T09:22:56;29.90;53.40
37300;DHT22;23184;51.902;12.836;2023-05-29T09:25:23;30.20;52.00
37300;DHT22;23184;51.902;12.836;2023-05-29T09:27:58;30.10;51.00
37300;DHT22;23184;51.902;12.836;2023-05-29T09:30:35;30.50;51.30
37300;DHT22;23184;51.902;12.836;2023-05-29T09:33:02;30.90;51.60
37300;DHT22;23184;51.902;12.836;2023-05-29T09:35:48;31.10;50.20
37300;DHT22;23184;51.902;12.836;2023-05-29T09:38:18;31.80;48.90
37300;DHT22;23184;51.902;12.836;2023-05-29T09:40:44;31.60;48.30
37300;DHT22;23184;51.902;12.836;2023-05-29T09:43:17;31.60;48.90
37300;DHT22;23184;51.902;12.836;2023-05-29T09:45:47;31.30;47.70
37300;DHT22;23184;51.902;12.836;2023-05-29T09:48:15;31.20;47.30
37300;DHT22;23184;51.902;12.836;2023-05-29T09:50:42;31.40;47.00
37300;DHT22;23184;51.902;12.836;2023-05-29T09:53:21;31.60;46.60
37300;DHT22;23184;51.902;12.836;2023-05-29T09:55:49;31.70;46.60
37300;DHT22;23184;51.902;12.836;2023-05-29T09:58:17;31.90;46.90
37300;DHT22;23184;51.902;12.836;2023-05-29T10:00:43;31.70;46.60
37300;DHT22;23184;51.902;12.836;2023-05-29T10:03:10;31.80;46.70
37300;DHT22;23184;51.902;12.836;2023-05-29T10:05:39;32.00;46.50
37300;DHT22;23184;51.902;12.836;2023-05-29T10:08:07;32.30;46.40
37300;DHT22;23184;51.902;12.836;2023-05-29T10:10:34;32.00;45.90
37300;DHT22;23184;51.902;12.836;2023-05-29T10:13:03;32.00;46.50
37300;DHT22;23184;51.902;12.836;2023-05-29T10:15:31;31.40;46.60
37300;DHT22;23184;51.902;12.836;2023-05-29T10:18:03;29.50;47.00
37300;DHT22;23184;51.902;12.836;2023-05-29T10:20:31;28.50;50.60
37300;DHT22;23184;51.902;12.836;2023-05-29T10:23:00;27.70;51.10
37300;DHT22;23184;51.902;12.836;2023-05-29T10:25:27;28.30;52.10
37300;DHT22;23184;51.902;12.836;2023-05-29T10:27:56;29.00;50.40
37300;DHT22;23184;51.902;12.836;2023-05-29T10:30:39;30.00;49.00
37300;DHT22;23184;51.902;12.836;2023-05-29T10:33:48;30.60;47.60
37300;DHT22;23184;51.902;12.836;2023-05-29T10:36:22;31.30;47.70
37300;DHT22;23184;51.902;12.836;2023-05-29T10:38:52;32.10;46.50
37300;DHT22;23184;51.902;12.836;2023-05-29T10:44:02;32.20;44.30
37300;DHT22;23184;51.902;12.836;2023-05-29T10:49:25;33.50;44.50
37300;DHT22;23184;51.902;12.836;2023-05-29T10:51:51;33.20;43.80
37300;DHT22;23184;51.902;12.836;2023-05-29T10:54:23;33.30;44.70
37300;DHT22;23184;51.902;12.836;2023-05-29T10:56:57;33.30;44.00
37300;DHT22;23184;51.902;12.836;2023-05-29T10:59:22;33.90;43.20
37300;DHT22;23184;51.902;12.836;2023-05-29T11:01:53;33.80;42.50
37300;DHT22;23184;51.902;12.836;2023-05-29T11:06:48;33.70;43.40
37300;DHT22;23184;51.902;12.836;2023-05-29T11:09:33;33.40;44.20
37300;DHT22;23184;51.902;12.836;2023-05-29T11:12:25;32.80;44.20
37300;DHT22;23184;51.902;12.836;2023-05-29T11:15:05;31.70;45.70
37300;DHT22;23184;51.902;12.836;2023-05-29T11:17:51;30.60;47.30
37300;DHT22;23184;51.902;12.836;2023-05-29T11:20:37;30.00;48.20
37300;DHT22;23184;51.902;12.836;2023-05-29T11:23:07;29.80;48.80
37300;DHT22;23184;51.902;12.836;2023-05-29T11:25:35;30.50;48.40
37300;DHT22;23184;51.902;12.836;2023-05-29T11:28:03;31.10;48.80
37300;DHT22;23184;51.902;12.836;2023-05-29T11:30:40;31.30;47.00
37300;DHT22;23184;51.902;12.836;2023-05-29T11:33:07;30.40;48.00
37300;DHT22;23184;51.902;12.836;2023-05-29T11:35:34;29.50;48.90
37300;DHT22;23184;51.902;12.836;2023-05-29T11:38:02;28.70;50.50
37300;DHT22;23184;51.902;12.836;2023-05-29T11:40:27;28.50;50.80
37300;DHT22;23184;51.902;12.836;2023-05-29T11:42:53;29.40;50.20
37300;DHT22;23184;51.902;12.836;2023-05-29T11:45:20;30.00;50.00
37300;DHT22;23184;51.902;12.836;2023-05-29T11:47:57;30.80;49.90
37300;DHT22;23184;51.902;12.836;2023-05-29T11:52:49;31.60;47.20
37300;DHT22;23184;51.902;12.836;2023-05-29T11:55:20;32.20;46.00
37300;DHT22;23184;51.902;12.836;2023-05-29T11:57:47;32.60;45.50
37300;DHT22;23184;51.902;12.836;2023-05-29T12:00:14;33.00;44.50
37300;DHT22;23184;51.902;12.836;2023-05-29T12:02:40;33.20;44.80
37300;DHT22;23184;51.902;12.836;2023-05-29T12:05:08;33.70;43.80
37300;DHT22;23184;51.902;12.836;2023-05-29T12:07:34;34.30;42.60
37300;DHT22;23184;51.902;12.836;2023-05-29T12:10:14;34.90;43.10
37300;DHT22;23184;51.902;12.836;2023-05-29T12:12:40;35.30;42.30
37300;DHT22;23184;51.902;12.836;2023-05-29T12:15:06;35.00;43.50
37300;DHT22;23184;51.902;12.836;2023-05-29T12:17:34;34.10;42.60
37300;DHT22;23184;51.902;12.836;2023-05-29T12:19:59;32.90;44.40
37300;DHT22;23184;51.902;12.836;2023-05-29T12:22:37;32.80;45.00
37300;DHT22;23184;51.902;12.836;2023-05-29T12:25:10;32.40;45.60
37300;DHT22;23184;51.902;12.836;2023-05-29T12:27:40;31.80;47.70
37300;DHT22;23184;51.902;12.836;2023-05-29T12:30:10;31.80;46.40
37300;DHT22;23184;51.902;12.836;2023-05-29T12:32:39;31.70;46.60
37300;DHT22;23184;51.902;12.836;2023-05-29T12:35:18;31.80;46.10
37300;DHT22;23184;51.902;12.836;2023-05-29T12:37:48;32.30;45.80
37300;DHT22;23184;51.902;12.836;2023-05-29T12:40:16;32.90;44.80
37300;DHT22;23184;51.902;12.836;2023-05-29T12:42:42;33.20;44.80
37300;DHT22;23184;51.902;12.836;2023-05-29T12:45:08;33.70;45.20
37300;DHT22;23184;51.902;12.836;2023-05-29T12:47:35;32.90;45.10
37300;DHT22;23184;51.902;12.836;2023-05-29T12:50:24;32.50;44.40
37300;DHT22;23184;51.902;12.836;2023-05-29T12:52:58;31.90;46.40
37300;DHT22;23184;51.902;12.836;2023-05-29T12:55:24;31.00;48.50
37300;DHT22;23184;51.902;12.836;2023-05-29T12:57:50;30.30;48.20
37300;DHT22;23184;51.902;12.836;2023-05-29T13:00:16;31.10;48.80
37300;DHT22;23184;51.902;12.836;2023-05-29T13:02:43;31.50;46.70
37300;DHT22;23184;51.902;12.836;2023-05-29T13:05:09;32.00;45.90
37300;DHT22;23184;51.902;12.836;2023-05-29T13:07:35;32.40;44.40
37300;DHT22;23184;51.902;12.836;2023-05-29T13:10:00;32.90;44.20
37300;DHT22;23184;51.902;12.836;2023-05-29T13:12:27;33.40;42.80
37300;DHT22;23184;51.902;12.836;2023-05-29T13:14:52;33.90;42.80
37300;DHT22;23184;51.902;12.836;2023-05-29T13:17:21;33.40;42.50
37300;DHT22;23184;51.902;12.836;2023-05-29T13:19:46;32.30;42.70
37300;DHT22;23184;51.902;12.836;2023-05-29T13:22:12;31.40;43.40
37300;DHT22;23184;51.902;12.836;2023-05-29T13:24:37;31.50;43.70
37300;DHT22;23184;51.902;12.836;2023-05-29T13:27:03;31.70;45.60
37300;DHT22;23184;51.902;12.836;2023-05-29T13:29:29;32.00;45.50
37300;DHT22;23184;51.902;12.836;2023-05-29T13:31:54;31.10;46.10
37300;DHT22;23184;51.902;12.836;2023-05-29T13:34:20;30.10;47.80
37300;DHT22;23184;51.902;12.836;2023-05-29T13:36:48;29.30;49.10
37300;DHT22;23184;51.902;12.836;2023-05-29T13:39:13;28.50;49.80
37300;DHT22;23184;51.902;12.836;2023-05-29T13:41:39;28.50;50.50
37300;DHT22;23184;51.902;12.836;2023-05-29T13:44:04;28.80;50.20
37300;DHT22;23184;51.902;12.836;2023-05-29T13:46:30;28.70;49.90
37300;DHT22;23184;51.902;12.836;2023-05-29T13:48:55;28.50;50.00
37300;DHT22;23184;51.902;12.836;2023-05-29T13:51:21;28.70;51.10
37300;DHT22;23184;51.902;12.836;2023-05-29T13:53:46;29.00;49.20
37300;DHT22;23184;51.902;12.836;2023-05-29T13:56:12;29.40;50.00
37300;DHT22;23184;51.902;12.836;2023-05-29T13:58:37;30.00;48.30
37300;DHT22;23184;51.902;12.836;2023-05-29T14:01:03;30.50;48.60
37300;DHT22;23184;51.902;12.836;2023-05-29T14:03:28;31.00;47.60
37300;DHT22;23184;51.902;12.836;2023-05-29T14:05:54;30.60;46.90
37300;DHT22;23184;51.902;12.836;2023-05-29T14:08:20;31.00;46.40
37300;DHT22;23184;51.902;12.836;2023-05-29T14:10:45;30.70;45.30
37300;DHT22;23184;51.902;12.836;2023-05-29T14:13:11;30.40;45.80
37300;DHT22;23184;51.902;12.836;2023-05-29T14:15:37;30.50;47.60
37300;DHT22;23184;51.902;12.836;2023-05-29T14:18:02;30.40;47.30
37300;DHT22;23184;51.902;12.836;2023-05-29T14:20:28;30.50;47.30
37300;DHT22;23184;51.902;12.836;2023-05-29T14:22:54;30.90;46.20
37300;DHT22;23184;51.902;12.836;2023-05-29T14:25:20;31.00;47.30
37300;DHT22;23184;51.902;12.836;2023-05-29T14:27:45;30.90;46.40
37300;DHT22;23184;51.902;12.836;2023-05-29T14:30:11;31.10;45.70
37300;DHT22;23184;51.902;12.836;2023-05-29T14:32:36;30.70;45.50
37300;DHT22;23184;51.902;12.836;2023-05-29T14:35:02;30.20;45.80
37300;DHT22;23184;51.902;12.836;2023-05-29T14:37:27;29.30;47.20
37300;DHT22;23184;51.902;12.836;2023-05-29T14:39:53;29.10;48.60
37300;DHT22;23184;51.902;12.836;2023-05-29T14:42:19;29.10;48.40
37300;DHT22;23184;51.902;12.836;2023-05-29T14:44:44;29.30;49.40
37300;DHT22;23184;51.902;12.836;2023-05-29T14:47:10;28.60;48.00
37300;DHT22;23184;51.902;12.836;2023-05-29T14:49:36;28.30;49.00
37300;DHT22;23184;51.902;12.836;2023-05-29T14:52:02;28.10;49.60
37300;DHT22;23184;51.902;12.836;2023-05-29T14:54:29;28.00;49.70
37300;DHT22;23184;51.902;12.836;2023-05-29T14:56:55;27.80;50.50
37300;DHT22;23184;51.902;12.836;2023-05-29T14:59:23;27.70;49.70
37300;DHT22;23184;51.902;12.836;2023-05-29T15:01:48;27.60;51.40
37300;DHT22;23184;51.902;12.836;2023-05-29T15:04:16;27.20;50.80
37300;DHT22;23184;51.902;12.836;2023-05-29T15:06:41;27.10;51.20
37300;DHT22;23184;51.902;12.836;2023-05-29T15:09:07;27.30;51.10
37300;DHT22;23184;51.902;12.836;2023-05-29T15:11:32;27.40;50.70
37300;DHT22;23184;51.902;12.836;2023-05-29T15:13:58;27.50;50.80
37300;DHT22;23184;51.902;12.836;2023-05-29T15:16:24;27.40;50.50
37300;DHT22;23184;51.902;12.836;2023-05-29T15:18:50;27.00;51.20
37300;DHT22;23184;51.902;12.836;2023-05-29T15:21:15;26.80;51.20
37300;DHT22;23184;51.902;12.836;2023-05-29T15:23:41;26.40;51.30
37300;DHT22;23184;51.902;12.836;2023-05-29T15:26:09;26.10;51.30
37300;DHT22;23184;51.902;12.836;2023-05-29T15:28:34;25.80;51.60
37300;DHT22;23184;51.902;12.836;2023-05-29T15:31:00;25.70;52.10
37300;DHT22;23184;51.902;12.836;2023-05-29T15:33:25;25.50;52.90
37300;DHT22;23184;51.902;12.836;2023-05-29T15:35:51;25.50;52.60
37300;DHT22;23184;51.902;12.836;2023-05-29T15:38:16;25.50;53.50